sensor_id;sensor_type;location;lat;lon;timestamp;P1;durP1;ratioP1;P2;durP2;ratioP2
22983;SDS011;11658;48.908;9.140;2022-12-18T06:01:36;17.93;;;10.97;;
22983;SDS011;11658;48.908;9.140;2022-12-18T06:04:01;22.40;;;11.43;;
22983;SDS011;11658;48.908;9.140;2022-12-18T06:06:27;21.73;;;11.63;;
22983;SDS011;11658;48.908;9.140;2022-12-18T06:08:54;19.10;;;10.43;;
22983;SDS011;11658;48.908;9.140;2022-12-18T06:11:22;20.00;;;12.03;;
22983;SDS011;11658;48.908;9.140;2022-12-18T06:13:50;19.50;;;11.70;;
22983;SDS011;11658;48.908;9.140;2022-12-18T06:16:17;23.40;;;12.23;;
22983;SDS011;11658;48.908;9.140;2022-12-18T06:18:42;18.13;;;10.80;;
22983;SDS011;11658;48.908;9.140;2022-12-18T06:21:08;18.30;;;11.67;;
22983;SDS011;11658;48.908;9.140;2022-12-18T06:23:34;21.83;;;12.83;;
22983;SDS011;11658;48.908;9.140;2022-12-18T06:26:04;21.50;;;12.20;;
22983;SDS011;11658;48.908;9.140;2022-12-18T06:28:31;19.23;;;11.77;;
22983;SDS011;11658;48.908;9.140;2022-12-18T06:30:56;17.80;;;11.23;;
22983;SDS011;11658;48.908;9.140;2022-12-18T06:33:22;20.37;;;11.37;;
22983;SDS011;11658;48.908;9.140;2022-12-18T06:35:52;23.47;;;11.50;;
22983;SDS011;11658;48.908;9.140;2022-12-18T06:38:17;18.27;;;11.17;;
22983;SDS011;11658;48.908;9.140;2022-12-18T06:40:43;17.83;;;10.50;;
22983;SDS011;11658;48.908;9.140;2022-12-18T06:43:08;20.67;;;12.23;;
22983;SDS011;11658;48.908;9.140;2022-12-18T06:45:34;21.47;;;11.10;;
22983;SDS011;11658;48.908;9.140;2022-12-18T06:47:59;19.27;;;11.93;;
22983;SDS011;11658;48.908;9.140;2022-12-18T06:50:25;21.70;;;11.73;;
22983;SDS011;11658;48.908;9.140;2022-12-18T06:52:51;17.57;;;11.03;;
22983;SDS011;11658;48.908;9.140;2022-12-18T06:55:17;18.83;;;10.87;;
22983;SDS011;11658;48.908;9.140;2022-12-18T06:57:42;14.73;;;9.67;;
22983;SDS011;11658;48.908;9.140;2022-12-18T07:00:08;17.13;;;10.20;;
22983;SDS011;11658;48.908;9.140;2022-12-18T07:02:34;20.10;;;11.07;;
22983;SDS011;11658;48.908;9.140;2022-12-18T07:05:00;16.83;;;10.43;;
22983;SDS011;11658;48.908;9.140;2022-12-18T07:07:26;20.17;;;10.60;;
22983;SDS011;11658;48.908;9.140;2022-12-18T07:09:52;18.57;;;11.63;;
22983;SDS011;11658;48.908;9.140;2022-12-18T07:12:17;19.77;;;11.53;;
22983;SDS011;11658;48.908;9.140;2022-12-18T07:14:43;20.37;;;11.60;;
22983;SDS011;11658;48.908;9.140;2022-12-18T07:17:09;17.37;;;10.90;;
22983;SDS011;11658;48.908;9.140;2022-12-18T07:19:34;20.57;;;11.53;;
22983;SDS011;11658;48.908;9.140;2022-12-18T07:22:00;17.57;;;10.40;;
22983;SDS011;11658;48.908;9.140;2022-12-18T07:24:26;17.60;;;10.83;;
22983;SDS011;11658;48.908;9.140;2022-12-18T07:26:52;19.57;;;11.13;;
22983;SDS011;11658;48.908;9.140;2022-12-18T07:29:17;16.23;;;10.30;;
22983;SDS011;11658;48.908;9.140;2022-12-18T07:31:43;17.50;;;10.97;;
22983;SDS011;11658;48.908;9.140;2022-12-18T07:34:12;16.73;;;10.03;;
22983;SDS011;11658;48.908;9.140;2022-12-18T07:36:38;17.90;;;11.03;;
22983;SDS011;11658;48.908;9.140;2022-12-18T07:39:04;20.23;;;10.70;;
22983;SDS011;11658;48.908;9.140;2022-12-18T07:41:29;17.23;;;10.50;;
22983;SDS011;11658;48.908;9.140;2022-12-18T07:43:55;17.83;;;9.90;;
22983;SDS011;11658;48.908;9.140;2022-12-18T07:46:22;17.33;;;10.50;;
22983;SDS011;11658;48.908;9.140;2022-12-18T07:48:47;17.63;;;11.07;;
22983;SDS011;11658;48.908;9.140;2022-12-18T07:51:13;17.90;;;10.90;;
22983;SDS011;11658;48.908;9.140;2022-12-18T07:53:42;19.97;;;11.27;;
22983;SDS011;11658;48.908;9.140;2022-12-18T07:56:08;21.27;;;11.97;;
22983;SDS011;11658;48.908;9.140;2022-12-18T07:58:36;22.73;;;12.23;;
22983;SDS011;11658;48.908;9.140;2022-12-18T08:01:06;19.60;;;12.23;;
22983;SDS011;11658;48.908;9.140;2022-12-18T08:03:34;17.50;;;11.43;;
22983;SDS011;11658;48.908;9.140;2022-12-18T08:06:01;17.93;;;11.57;;
22983;SDS011;11658;48.908;9.140;2022-12-18T08:08:27;16.90;;;10.77;;
22983;SDS011;11658;48.908;9.140;2022-12-18T08:10:53;15.50;;;10.63;;
22983;SDS011;11658;48.908;9.140;2022-12-18T08:13:19;19.83;;;10.77;;
22983;SDS011;11658;48.908;9.140;2022-12-18T08:15:45;17.10;;;10.63;;
22983;SDS011;11658;48.908;9.140;2022-12-18T08:18:10;19.00;;;11.20;;
22983;SDS011;11658;48.908;9.140;2022-12-18T08:20:36;17.53;;;11.00;;
22983;SDS011;11658;48.908;9.140;2022-12-18T08:23:01;18.70;;;10.90;;
22983;SDS011;11658;48.908;9.140;2022-12-18T08:25:27;20.73;;;12.30;;
22983;SDS011;11658;48.908;9.140;2022-12-18T08:27:53;19.07;;;11.77;;
22983;SDS011;11658;48.908;9.140;2022-12-18T08:30:18;19.63;;;11.27;;
22983;SDS011;11658;48.908;9.140;2022-12-18T08:32:44;20.60;;;11.90;;
22983;SDS011;11658;48.908;9.140;2022-12-18T08:35:10;20.07;;;11.90;;
22983;SDS011;11658;48.908;9.140;2022-12-18T08:37:36;18.07;;;10.80;;
22983;SDS011;11658;48.908;9.140;2022-12-18T08:40:02;19.63;;;11.97;;
22983;SDS011;11658;48.908;9.140;2022-12-18T08:42:28;22.23;;;12.30;;
22983;SDS011;11658;48.908;9.140;2022-12-18T08:45:12;20.47;;;11.80;;
22983;SDS011;11658;48.908;9.140;2022-12-18T08:47:38;21.17;;;12.33;;
22983;SDS011;11658;48.908;9.140;2022-12-18T08:50:04;17.00;;;11.83;;
22983;SDS011;11658;48.908;9.140;2022-12-18T08:52:31;16.97;;;11.20;;
22983;SDS011;11658;48.908;9.140;2022-12-18T08:54:57;21.17;;;11.80;;
22983;SDS011;11658;48.908;9.140;2022-12-18T08:57:23;19.47;;;11.70;;
22983;SDS011;11658;48.908;9.140;2022-12-18T08:59:48;20.47;;;11.27;;
22983;SDS011;11658;48.908;9.140;2022-12-18T09:02:14;22.27;;;12.60;;
22983;SDS011;11658;48.908;9.140;2022-12-18T09:04:39;21.67;;;11.80;;
22983;SDS011;11658;48.908;9.140;2022-12-18T09:07:05;19.80;;;12.27;;
22983;SDS011;11658;48.908;9.140;2022-12-18T09:09:31;19.90;;;12.10;;
22983;SDS011;11658;48.908;9.140;2022-12-18T09:11:56;20.03;;;11.33;;
22983;SDS011;11658;48.908;9.140;2022-12-18T09:14:22;21.07;;;11.83;;
22983;SDS011;11658;48.908;9.140;2022-12-18T09:16:47;18.13;;;11.63;;
22983;SDS011;11658;48.908;9.140;2022-12-18T09:19:13;17.93;;;11.53;;
22983;SDS011;11658;48.908;9.140;2022-12-18T09:21:39;23.00;;;12.40;;
22983;SDS011;11658;48.908;9.140;2022-12-18T09:24:05;20.60;;;11.33;;
22983;SDS011;11658;48.908;9.140;2022-12-18T09:26:31;24.23;;;12.03;;
22983;SDS011;11658;48.908;9.140;2022-12-18T09:28:56;20.97;;;12.50;;
22983;SDS011;11658;48.908;9.140;2022-12-18T09:31:22;22.60;;;12.70;;
22983;SDS011;11658;48.908;9.140;2022-12-18T09:33:49;21.07;;;12.70;;
22983;SDS011;11658;48.908;9.140;2022-12-18T09:36:16;20.73;;;12.30;;
22983;SDS011;11658;48.908;9.140;2022-12-18T09:38:42;21.63;;;12.40;;
22983;SDS011;11658;48.908;9.140;2022-12-18T09:43:53;21.93;;;13.10;;
22983;SDS011;11658;48.908;9.140;2022-12-18T09:46:23;23.27;;;12.97;;
22983;SDS011;11658;48.908;9.140;2022-12-18T09:48:54;21.20;;;14.17;;
22983;SDS011;11658;48.908;9.140;2022-12-18T09:54:15;20.43;;;13.23;;
22983;SDS011;11658;48.908;9.140;2022-12-18T09:56:51;22.90;;;12.40;;
22983;SDS011;11658;48.908;9.140;2022-12-18T09:59:24;21.87;;;13.30;;
22983;SDS011;11658;48.908;9.140;2022-12-18T10:01:52;19.13;;;11.70;;
22983;SDS011;11658;48.908;9.140;2022-12-18T10:04:18;21.97;;;12.93;;
22983;SDS011;11658;48.908;9.140;2022-12-18T10:06:55;22.90;;;13.83;;
22983;SDS011;11658;48.908;9.140;2022-12-18T10:17:22;22.27;;;13.03;;
22983;SDS011;11658;48.908;9.140;2022-12-18T10:20:17;22.40;;;12.27;;
22983;SDS011;11658;48.908;9.140;2022-12-18T10:23:03;21.10;;;12.13;;
22983;SDS011;11658;48.908;9.140;2022-12-18T10:25:34;21.77;;;12.77;;
22983;SDS011;11658;48.908;9.140;2022-12-18T10:28:18;19.57;;;12.90;;
22983;SDS011;11658;48.908;9.140;2022-12-18T10:30:45;21.47;;;13.83;;
22983;SDS011;11658;48.908;9.140;2022-12-18T10:33:14;23.67;;;12.97;;
22983;SDS011;11658;48.908;9.140;2022-12-18T10:35:45;21.97;;;13.20;;
22983;SDS011;11658;48.908;9.140;2022-12-18T10:43:19;24.47;;;13.93;;
22983;SDS011;11658;48.908;9.140;2022-12-18T10:46:30;21.87;;;13.33;;
22983;SDS011;11658;48.908;9.140;2022-12-18T10:48:57;21.10;;;13.33;;
22983;SDS011;11658;48.908;9.140;2022-12-18T10:53:54;22.23;;;13.33;;
22983;SDS011;11658;48.908;9.140;2022-12-18T10:56:23;22.43;;;13.53;;
22983;SDS011;11658;48.908;9.140;2022-12-18T10:58:58;26.97;;;14.30;;
22983;SDS011;11658;48.908;9.140;2022-12-18T11:01:25;22.83;;;13.57;;
22983;SDS011;11658;48.908;9.140;2022-12-18T11:06:19;23.03;;;13.47;;
22983;SDS011;11658;48.908;9.140;2022-12-18T11:11:29;21.47;;;13.27;;
22983;SDS011;11658;48.908;9.140;2022-12-18T11:16:27;19.07;;;12.83;;
22983;SDS011;11658;48.908;9.140;2022-12-18T11:18:59;20.27;;;13.30;;
22983;SDS011;11658;48.908;9.140;2022-12-18T11:21:53;22.00;;;12.77;;
22983;SDS011;11658;48.908;9.140;2022-12-18T11:24:20;19.23;;;13.33;;
22983;SDS011;11658;48.908;9.140;2022-12-18T11:26:51;22.33;;;13.40;;
22983;SDS011;11658;48.908;9.140;2022-12-18T11:29:18;20.53;;;13.43;;
22983;SDS011;11658;48.908;9.140;2022-12-18T11:31:48;20.37;;;12.93;;
22983;SDS011;11658;48.908;9.140;2022-12-18T11:34:16;23.47;;;13.77;;
22983;SDS011;11658;48.908;9.140;2022-12-18T11:36:52;20.80;;;13.00;;
22983;SDS011;11658;48.908;9.140;2022-12-18T11:47:49;21.10;;;12.10;;
22983;SDS011;11658;48.908;9.140;2022-12-18T11:50:34;22.00;;;13.03;;
22983;SDS011;11658;48.908;9.140;2022-12-18T11:53:22;25.20;;;13.63;;
22983;SDS011;11658;48.908;9.140;2022-12-18T12:06:45;22.17;;;13.17;;
22983;SDS011;11658;48.908;9.140;2022-12-18T12:17:40;23.10;;;13.40;;
22983;SDS011;11658;48.908;9.140;2022-12-18T12:32:05;21.57;;;13.90;;
22983;SDS011;11658;48.908;9.140;2022-12-18T12:39:59;19.47;;;12.80;;
22983;SDS011;11658;48.908;9.140;2022-12-18T12:42:29;21.80;;;12.87;;
22983;SDS011;11658;48.908;9.140;2022-12-18T12:46:02;20.23;;;12.57;;
22983;SDS011;11658;48.908;9.140;2022-12-18T12:48:35;21.80;;;13.03;;
22983;SDS011;11658;48.908;9.140;2022-12-18T12:51:06;25.23;;;12.93;;
22983;SDS011;11658;48.908;9.140;2022-12-18T12:53:38;22.90;;;14.03;;
22983;SDS011;11658;48.908;9.140;2022-12-18T12:56:06;21.20;;;12.70;;
22983;SDS011;11658;48.908;9.140;2022-12-18T13:01:14;22.57;;;13.60;;
22983;SDS011;11658;48.908;9.140;2022-12-18T13:03:54;20.20;;;12.80;;
22983;SDS011;11658;48.908;9.140;2022-12-18T13:07:01;20.07;;;12.67;;
22983;SDS011;11658;48.908;9.140;2022-12-18T13:10:10;21.07;;;13.00;;
22983;SDS011;11658;48.908;9.140;2022-12-18T13:15:37;18.10;;;11.77;;
22983;SDS011;11658;48.908;9.140;2022-12-18T13:20:36;21.97;;;12.93;;
22983;SDS011;11658;48.908;9.140;2022-12-18T13:25:48;22.80;;;13.77;;
22983;SDS011;11658;48.908;9.140;2022-12-18T13:31:06;23.23;;;13.87;;
22983;SDS011;11658;48.908;9.140;2022-12-18T13:41:37;24.83;;;14.27;;
22983;SDS011;11658;48.908;9.140;2022-12-18T13:46:47;23.90;;;13.93;;
22983;SDS011;11658;48.908;9.140;2022-12-18T13:51:56;23.77;;;14.33;;
22983;SDS011;11658;48.908;9.140;2022-12-18T13:54:24;25.03;;;14.10;;
22983;SDS011;11658;48.908;9.140;2022-12-18T13:57:02;24.93;;;13.47;;
22983;SDS011;11658;48.908;9.140;2022-12-18T13:59:35;21.27;;;12.73;;
22983;SDS011;11658;48.908;9.140;2022-12-18T14:02:13;22.60;;;13.73;;
22983;SDS011;11658;48.908;9.140;2022-12-18T14:04:41;22.93;;;13.87;;
22983;SDS011;11658;48.908;9.140;2022-12-18T14:09:49;21.83;;;13.07;;
22983;SDS011;11658;48.908;9.140;2022-12-18T14:12:25;18.70;;;12.07;;
22983;SDS011;11658;48.908;9.140;2022-12-18T14:17:59;24.07;;;14.17;;
22983;SDS011;11658;48.908;9.140;2022-12-18T14:20:27;23.93;;;13.40;;
22983;SDS011;11658;48.908;9.140;2022-12-18T14:22:54;20.37;;;13.23;;
22983;SDS011;11658;48.908;9.140;2022-12-18T14:25:22;22.70;;;14.00;;
22983;SDS011;11658;48.908;9.140;2022-12-18T14:27:53;26.03;;;14.93;;
22983;SDS011;11658;48.908;9.140;2022-12-18T14:30:38;27.70;;;14.63;;
22983;SDS011;11658;48.908;9.140;2022-12-18T14:35:31;22.60;;;12.90;;
22983;SDS011;11658;48.908;9.140;2022-12-18T14:38:42;26.27;;;15.47;;
22983;SDS011;11658;48.908;9.140;2022-12-18T14:40:54;23.17;;;14.70;;
22983;SDS011;11658;48.908;9.140;2022-12-18T14:43:21;24.03;;;14.87;;
22983;SDS011;11658;48.908;9.140;2022-12-18T14:45:47;24.60;;;14.73;;
22983;SDS011;11658;48.908;9.140;2022-12-18T14:51:02;28.13;;;16.33;;
22983;SDS011;11658;48.908;9.140;2022-12-18T14:55:58;25.03;;;15.57;;
22983;SDS011;11658;48.908;9.140;2022-12-18T14:58:24;23.03;;;14.33;;
22983;SDS011;11658;48.908;9.140;2022-12-18T15:00:49;19.80;;;13.83;;
22983;SDS011;11658;48.908;9.140;2022-12-18T15:03:17;25.83;;;14.30;;
22983;SDS011;11658;48.908;9.140;2022-12-18T15:05:44;22.33;;;14.40;;
22983;SDS011;11658;48.908;9.140;2022-12-18T15:08:27;22.80;;;14.47;;
22983;SDS011;11658;48.908;9.140;2022-12-18T15:11:01;22.33;;;13.70;;
22983;SDS011;11658;48.908;9.140;2022-12-18T15:13:27;24.47;;;14.80;;
22983;SDS011;11658;48.908;9.140;2022-12-18T15:15:52;20.70;;;13.97;;
22983;SDS011;11658;48.908;9.140;2022-12-18T15:18:21;25.07;;;14.23;;
22983;SDS011;11658;48.908;9.140;2022-12-18T15:20:55;25.93;;;14.77;;
22983;SDS011;11658;48.908;9.140;2022-12-18T15:23:32;26.57;;;15.43;;
22983;SDS011;11658;48.908;9.140;2022-12-18T15:26:05;26.93;;;15.60;;
22983;SDS011;11658;48.908;9.140;2022-12-18T15:36:17;21.50;;;13.73;;
22983;SDS011;11658;48.908;9.140;2022-12-18T15:38:47;22.07;;;14.30;;
22983;SDS011;11658;48.908;9.140;2022-12-18T15:41:14;24.67;;;14.97;;
22983;SDS011;11658;48.908;9.140;2022-12-18T15:43:45;25.37;;;15.20;;
22983;SDS011;11658;48.908;9.140;2022-12-18T15:48:41;25.63;;;15.47;;
22983;SDS011;11658;48.908;9.140;2022-12-18T15:53:45;25.93;;;16.33;;
22983;SDS011;11658;48.908;9.140;2022-12-18T15:56:13;24.93;;;16.00;;
22983;SDS011;11658;48.908;9.140;2022-12-18T15:58:59;27.27;;;15.63;;
22983;SDS011;11658;48.908;9.140;2022-12-18T16:01:26;24.57;;;15.37;;
22983;SDS011;11658;48.908;9.140;2022-12-18T16:03:53;28.77;;;16.37;;
22983;SDS011;11658;48.908;9.140;2022-12-18T16:06:20;24.00;;;14.73;;
22983;SDS011;11658;48.908;9.140;2022-12-18T16:08:46;27.10;;;16.20;;
22983;SDS011;11658;48.908;9.140;2022-12-18T16:11:21;25.90;;;15.33;;
22983;SDS011;11658;48.908;9.140;2022-12-18T16:14:05;31.23;;;16.70;;
22983;SDS011;11658;48.908;9.140;2022-12-18T16:16:31;28.27;;;17.37;;
22983;SDS011;11658;48.908;9.140;2022-12-18T16:18:56;30.53;;;17.50;;
22983;SDS011;11658;48.908;9.140;2022-12-18T16:21:22;31.30;;;17.80;;
22983;SDS011;11658;48.908;9.140;2022-12-18T16:23:48;29.37;;;17.27;;
22983;SDS011;11658;48.908;9.140;2022-12-18T16:26:13;34.37;;;18.73;;
22983;SDS011;11658;48.908;9.140;2022-12-18T16:28:39;31.17;;;18.37;;
22983;SDS011;11658;48.908;9.140;2022-12-18T16:31:04;30.60;;;18.30;;
22983;SDS011;11658;48.908;9.140;2022-12-18T16:33:30;30.83;;;18.50;;
22983;SDS011;11658;48.908;9.140;2022-12-18T16:35:55;31.10;;;18.17;;
22983;SDS011;11658;48.908;9.140;2022-12-18T16:38:21;27.97;;;17.10;;
22983;SDS011;11658;48.908;9.140;2022-12-18T16:40:47;31.20;;;17.23;;
22983;SDS011;11658;48.908;9.140;2022-12-18T16:43:31;27.40;;;16.73;;
22983;SDS011;11658;48.908;9.140;2022-12-18T16:45:58;26.80;;;16.00;;
22983;SDS011;11658;48.908;9.140;2022-12-18T16:48:24;25.27;;;16.20;;
22983;SDS011;11658;48.908;9.140;2022-12-18T16:50:49;29.33;;;16.80;;
22983;SDS011;11658;48.908;9.140;2022-12-18T16:53:15;26.03;;;16.80;;
22983;SDS011;11658;48.908;9.140;2022-12-18T16:55:40;36.27;;;18.13;;
22983;SDS011;11658;48.908;9.140;2022-12-18T16:58:06;28.30;;;17.43;;
22983;SDS011;11658;48.908;9.140;2022-12-18T17:00:31;31.97;;;18.30;;
22983;SDS011;11658;48.908;9.140;2022-12-18T17:02:57;27.27;;;17.37;;
22983;SDS011;11658;48.908;9.140;2022-12-18T17:05:23;32.83;;;19.80;;
22983;SDS011;11658;48.908;9.140;2022-12-18T17:07:48;29.47;;;18.23;;
22983;SDS011;11658;48.908;9.140;2022-12-18T17:10:14;28.37;;;17.00;;
22983;SDS011;11658;48.908;9.140;2022-12-18T17:12:39;27.60;;;16.33;;
22983;SDS011;11658;48.908;9.140;2022-12-18T17:15:06;31.40;;;17.67;;
22983;SDS011;11658;48.908;9.140;2022-12-18T17:17:32;28.60;;;17.10;;
22983;SDS011;11658;48.908;9.140;2022-12-18T17:20:00;28.37;;;16.60;;
22983;SDS011;11658;48.908;9.140;2022-12-18T17:22:25;27.90;;;16.50;;
22983;SDS011;11658;48.908;9.140;2022-12-18T17:24:52;28.17;;;17.47;;
22983;SDS011;11658;48.908;9.140;2022-12-18T17:27:17;27.67;;;16.90;;
22983;SDS011;11658;48.908;9.140;2022-12-18T17:29:43;30.13;;;15.97;;
22983;SDS011;11658;48.908;9.140;2022-12-18T17:32:08;27.90;;;17.17;;
22983;SDS011;11658;48.908;9.140;2022-12-18T17:34:34;27.77;;;16.07;;
22983;SDS011;11658;48.908;9.140;2022-12-18T17:37:00;22.30;;;13.97;;
22983;SDS011;11658;48.908;9.140;2022-12-18T17:39:26;21.53;;;14.43;;
22983;SDS011;11658;48.908;9.140;2022-12-18T17:41:52;22.13;;;14.03;;
22983;SDS011;11658;48.908;9.140;2022-12-18T17:44:18;24.63;;;14.13;;
22983;SDS011;11658;48.908;9.140;2022-12-18T17:46:44;23.43;;;13.93;;
22983;SDS011;11658;48.908;9.140;2022-12-18T17:49:10;25.23;;;13.77;;
22983;SDS011;11658;48.908;9.140;2022-12-18T17:51:36;21.23;;;12.33;;
22983;SDS011;11658;48.908;9.140;2022-12-18T17:54:02;21.37;;;12.67;;
22983;SDS011;11658;48.908;9.140;2022-12-18T17:56:28;21.53;;;12.73;;
22983;SDS011;11658;48.908;9.140;2022-12-18T17:58:53;19.70;;;11.83;;
22983;SDS011;11658;48.908;9.140;2022-12-18T18:01:20;21.23;;;13.43;;
22983;SDS011;11658;48.908;9.140;2022-12-18T18:03:48;20.47;;;12.87;;
22983;SDS011;11658;48.908;9.140;2022-12-18T18:06:13;23.33;;;12.93;;
22983;SDS011;11658;48.908;9.140;2022-12-18T18:08:39;26.50;;;14.40;;
22983;SDS011;11658;48.908;9.140;2022-12-18T18:11:05;25.10;;;14.90;;
22983;SDS011;11658;48.908;9.140;2022-12-18T18:13:53;25.77;;;14.93;;
22983;SDS011;11658;48.908;9.140;2022-12-18T18:16:25;25.67;;;14.87;;
22983;SDS011;11658;48.908;9.140;2022-12-18T18:18:56;27.70;;;16.13;;
22983;SDS011;11658;48.908;9.140;2022-12-18T18:21:22;24.47;;;14.23;;
22983;SDS011;11658;48.908;9.140;2022-12-18T18:23:48;23.07;;;13.40;;
22983;SDS011;11658;48.908;9.140;2022-12-18T18:26:13;24.27;;;14.53;;
22983;SDS011;11658;48.908;9.140;2022-12-18T18:28:39;22.13;;;12.47;;
22983;SDS011;11658;48.908;9.140;2022-12-18T18:31:05;20.03;;;12.90;;
22983;SDS011;11658;48.908;9.140;2022-12-18T18:33:33;21.97;;;13.17;;
22983;SDS011;11658;48.908;9.140;2022-12-18T18:35:59;19.30;;;12.93;;
22983;SDS011;11658;48.908;9.140;2022-12-18T18:38:24;20.43;;;12.93;;
22983;SDS011;11658;48.908;9.140;2022-12-18T18:40:57;23.33;;;13.23;;
22983;SDS011;11658;48.908;9.140;2022-12-18T18:43:24;22.10;;;13.87;;
22983;SDS011;11658;48.908;9.140;2022-12-18T18:45:53;19.73;;;12.93;;
22983;SDS011;11658;48.908;9.140;2022-12-18T18:48:23;20.47;;;12.77;;
22983;SDS011;11658;48.908;9.140;2022-12-18T18:50:56;20.87;;;12.77;;
22983;SDS011;11658;48.908;9.140;2022-12-18T18:53:22;19.13;;;12.17;;
22983;SDS011;11658;48.908;9.140;2022-12-18T18:55:48;20.50;;;12.37;;
22983;SDS011;11658;48.908;9.140;2022-12-18T18:58:13;19.50;;;11.67;;
22983;SDS011;11658;48.908;9.140;2022-12-18T19:00:39;20.30;;;12.40;;
22983;SDS011;11658;48.908;9.140;2022-12-18T19:03:04;18.87;;;11.83;;
22983;SDS011;11658;48.908;9.140;2022-12-18T19:05:31;19.83;;;11.47;;
22983;SDS011;11658;48.908;9.140;2022-12-18T19:07:56;21.63;;;13.20;;
22983;SDS011;11658;48.908;9.140;2022-12-18T19:10:22;21.07;;;12.50;;
22983;SDS011;11658;48.908;9.140;2022-12-18T19:12:48;23.27;;;13.87;;
22983;SDS011;11658;48.908;9.140;2022-12-18T19:15:32;18.03;;;11.60;;
22983;SDS011;11658;48.908;9.140;2022-12-18T19:17:58;17.27;;;11.93;;
22983;SDS011;11658;48.908;9.140;2022-12-18T19:20:24;19.57;;;12.10;;
22983;SDS011;11658;48.908;9.140;2022-12-18T19:22:50;18.93;;;11.77;;
22983;SDS011;11658;48.908;9.140;2022-12-18T19:25:15;20.37;;;12.27;;
22983;SDS011;11658;48.908;9.140;2022-12-18T19:27:42;23.20;;;12.67;;
22983;SDS011;11658;48.908;9.140;2022-12-18T19:30:08;18.60;;;11.60;;
22983;SDS011;11658;48.908;9.140;2022-12-18T19:32:34;23.03;;;13.30;;
22983;SDS011;11658;48.908;9.140;2022-12-18T19:34:59;20.50;;;12.93;;
22983;SDS011;11658;48.908;9.140;2022-12-18T19:37:25;20.87;;;12.20;;
22983;SDS011;11658;48.908;9.140;2022-12-18T19:39:50;20.93;;;12.00;;
22983;SDS011;11658;48.908;9.140;2022-12-18T19:42:16;18.40;;;11.97;;
22983;SDS011;11658;48.908;9.140;2022-12-18T19:44:42;20.70;;;13.07;;
22983;SDS011;11658;48.908;9.140;2022-12-18T19:47:07;20.83;;;12.60;;
22983;SDS011;11658;48.908;9.140;2022-12-18T19:49:33;20.43;;;12.43;;
22983;SDS011;11658;48.908;9.140;2022-12-18T19:51:58;18.43;;;10.93;;
22983;SDS011;11658;48.908;9.140;2022-12-18T19:54:24;20.70;;;11.90;;
22983;SDS011;11658;48.908;9.140;2022-12-18T19:56:50;19.97;;;12.30;;
22983;SDS011;11658;48.908;9.140;2022-12-18T19:59:16;21.10;;;12.30;;
22983;SDS011;11658;48.908;9.140;2022-12-18T20:01:42;20.20;;;11.77;;
22983;SDS011;11658;48.908;9.140;2022-12-18T20:04:07;17.60;;;11.27;;
22983;SDS011;11658;48.908;9.140;2022-12-18T20:06:35;19.77;;;11.83;;
22983;SDS011;11658;48.908;9.140;2022-12-18T20:09:10;18.47;;;11.70;;
22983;SDS011;11658;48.908;9.140;2022-12-18T20:11:35;21.10;;;11.97;;
22983;SDS011;11658;48.908;9.140;2022-12-18T20:14:01;18.13;;;11.87;;
22983;SDS011;11658;48.908;9.140;2022-12-18T20:16:27;19.33;;;12.17;;
22983;SDS011;11658;48.908;9.140;2022-12-18T20:18:53;19.83;;;11.70;;
22983;SDS011;11658;48.908;9.140;2022-12-18T20:21:19;17.33;;;11.43;;
22983;SDS011;11658;48.908;9.140;2022-12-18T20:23:45;18.63;;;11.73;;
22983;SDS011;11658;48.908;9.140;2022-12-18T20:26:11;18.63;;;11.73;;
22983;SDS011;11658;48.908;9.140;2022-12-18T20:28:36;18.47;;;11.50;;
22983;SDS011;11658;48.908;9.140;2022-12-18T20:31:03;19.23;;;11.50;;
22983;SDS011;11658;48.908;9.140;2022-12-18T20:33:32;19.20;;;12.30;;
22983;SDS011;11658;48.908;9.140;2022-12-18T20:36:00;20.00;;;11.63;;
22983;SDS011;11658;48.908;9.140;2022-12-18T20:38:30;20.13;;;12.13;;
22983;SDS011;11658;48.908;9.140;2022-12-18T20:40:55;20.50;;;11.67;;
22983;SDS011;11658;48.908;9.140;2022-12-18T20:43:21;20.73;;;11.53;;
22983;SDS011;11658;48.908;9.140;2022-12-18T20:45:47;19.77;;;12.17;;
22983;SDS011;11658;48.908;9.140;2022-12-18T20:48:12;21.73;;;12.10;;
22983;SDS011;11658;48.908;9.140;2022-12-18T20:50:38;22.20;;;12.43;;
22983;SDS011;11658;48.908;9.140;2022-12-18T20:53:04;19.37;;;12.30;;
22983;SDS011;11658;48.908;9.140;2022-12-18T20:55:29;18.47;;;11.77;;
22983;SDS011;11658;48.908;9.140;2022-12-18T20:57:55;21.63;;;11.43;;
22983;SDS011;11658;48.908;9.140;2022-12-18T21:00:21;23.33;;;12.70;;
22983;SDS011;11658;48.908;9.140;2022-12-18T21:02:47;21.90;;;12.90;;
22983;SDS011;11658;48.908;9.140;2022-12-18T21:05:12;18.70;;;11.87;;
22983;SDS011;11658;48.908;9.140;2022-12-18T21:07:38;22.27;;;13.40;;
22983;SDS011;11658;48.908;9.140;2022-12-18T21:10:04;21.97;;;12.13;;
22983;SDS011;11658;48.908;9.140;2022-12-18T21:12:30;18.93;;;11.33;;
22983;SDS011;11658;48.908;9.140;2022-12-18T21:14:57;19.00;;;11.30;;
22983;SDS011;11658;48.908;9.140;2022-12-18T21:17:25;21.10;;;11.87;;
22983;SDS011;11658;48.908;9.140;2022-12-18T21:19:51;17.60;;;10.50;;
22983;SDS011;11658;48.908;9.140;2022-12-18T21:22:17;19.13;;;11.97;;
22983;SDS011;11658;48.908;9.140;2022-12-18T21:24:42;17.67;;;11.67;;
22983;SDS011;11658;48.908;9.140;2022-12-18T21:27:08;18.80;;;11.83;;
22983;SDS011;11658;48.908;9.140;2022-12-18T21:29:34;17.93;;;11.70;;
22983;SDS011;11658;48.908;9.140;2022-12-18T21:32:00;19.13;;;11.40;;
22983;SDS011;11658;48.908;9.140;2022-12-18T21:34:27;22.60;;;12.10;;
22983;SDS011;11658;48.908;9.140;2022-12-18T21:36:54;18.70;;;11.60;;
22983;SDS011;11658;48.908;9.140;2022-12-18T21:39:21;20.10;;;11.67;;
22983;SDS011;11658;48.908;9.140;2022-12-18T21:41:47;19.77;;;11.53;;
22983;SDS011;11658;48.908;9.140;2022-12-18T21:44:31;18.70;;;11.67;;
22983;SDS011;11658;48.908;9.140;2022-12-18T21:46:57;18.73;;;10.73;;
22983;SDS011;11658;48.908;9.140;2022-12-18T21:49:23;18.90;;;11.57;;
22983;SDS011;11658;48.908;9.140;2022-12-18T21:51:49;19.70;;;11.93;;
22983;SDS011;11658;48.908;9.140;2022-12-18T21:54:17;19.07;;;11.47;;
